sensor_id;sensor_type;location;lat;lon;timestamp;temperature;humidity
24518;DHT22;12678;51.336;12.406;2023-05-16T00:02:00;14.60;99.90
24518;DHT22;12678;51.336;12.406;2023-05-16T00:04:27;14.60;99.90
24518;DHT22;12678;51.336;12.406;2023-05-16T00:06:53;14.60;99.90
24518;DHT22;12678;51.336;12.406;2023-05-16T00:09:19;14.60;99.90
24518;DHT22;12678;51.336;12.406;2023-05-16T00:11:45;14.50;99.90
24518;DHT22;12678;51.336;12.406;2023-05-16T00:14:12;14.50;99.90
24518;DHT22;12678;51.336;12.406;2023-05-16T00:16:39;14.50;99.90
24518;DHT22;12678;51.336;12.406;2023-05-16T00:19:06;14.50;99.90
24518;DHT22;12678;51.336;12.406;2023-05-16T00:21:32;14.40;99.90
24518;DHT22;12678;51.336;12.406;2023-05-16T00:23:57;14.40;99.90
24518;DHT22;12678;51.336;12.406;2023-05-16T00:26:23;14.30;99.90
24518;DHT22;12678;51.336;12.406;2023-05-16T00:28:49;14.30;99.90
24518;DHT22;12678;51.336;12.406;2023-05-16T00:31:15;14.30;99.90
24518;DHT22;12678;51.336;12.406;2023-05-16T00:33:40;14.20;99.90
24518;DHT22;12678;51.336;12.406;2023-05-16T00:36:06;14.20;99.90
24518;DHT22;12678;51.336;12.406;2023-05-16T00:38:32;14.10;99.90
24518;DHT22;12678;51.336;12.406;2023-05-16T00:40:58;14.20;99.90
24518;DHT22;12678;51.336;12.406;2023-05-16T00:43:24;14.10;99.90
24518;DHT22;12678;51.336;12.406;2023-05-16T00:45:50;14.20;99.90
24518;DHT22;12678;51.336;12.406;2023-05-16T00:48:15;14.10;99.90
24518;DHT22;12678;51.336;12.406;2023-05-16T00:50:41;14.10;99.90
24518;DHT22;12678;51.336;12.406;2023-05-16T00:53:07;14.00;99.90
24518;DHT22;12678;51.336;12.406;2023-05-16T00:55:33;14.10;99.90
24518;DHT22;12678;51.336;12.406;2023-05-16T00:57:59;14.10;99.90
24518;DHT22;12678;51.336;12.406;2023-05-16T01:00:25;14.10;99.90
24518;DHT22;12678;51.336;12.406;2023-05-16T01:02:51;14.20;99.90
24518;DHT22;12678;51.336;12.406;2023-05-16T01:05:18;14.20;99.90
24518;DHT22;12678;51.336;12.406;2023-05-16T01:07:44;14.10;99.90
24518;DHT22;12678;51.336;12.406;2023-05-16T01:10:10;14.10;99.90
24518;DHT22;12678;51.336;12.406;2023-05-16T01:12:38;14.10;99.90
24518;DHT22;12678;51.336;12.406;2023-05-16T01:15:21;14.10;99.90
24518;DHT22;12678;51.336;12.406;2023-05-16T01:18:08;14.00;99.90
24518;DHT22;12678;51.336;12.406;2023-05-16T01:20:49;13.90;99.90
24518;DHT22;12678;51.336;12.406;2023-05-16T01:23:30;13.90;99.90
24518;DHT22;12678;51.336;12.406;2023-05-16T01:28:44;13.90;99.90
24518;DHT22;12678;51.336;12.406;2023-05-16T01:31:11;14.00;99.90
24518;DHT22;12678;51.336;12.406;2023-05-16T01:33:37;13.80;99.90
24518;DHT22;12678;51.336;12.406;2023-05-16T01:38:48;13.70;99.90
24518;DHT22;12678;51.336;12.406;2023-05-16T01:41:32;13.60;99.90
24518;DHT22;12678;51.336;12.406;2023-05-16T01:44:01;13.60;99.90
24518;DHT22;12678;51.336;12.406;2023-05-16T01:46:35;13.60;99.90
24518;DHT22;12678;51.336;12.406;2023-05-16T01:49:25;13.50;99.90
24518;DHT22;12678;51.336;12.406;2023-05-16T01:51:55;13.50;99.90
24518;DHT22;12678;51.336;12.406;2023-05-16T01:54:24;13.40;99.90
24518;DHT22;12678;51.336;12.406;2023-05-16T01:56:53;13.30;99.90
24518;DHT22;12678;51.336;12.406;2023-05-16T01:59:21;13.30;99.90
24518;DHT22;12678;51.336;12.406;2023-05-16T02:01:48;13.30;99.90
24518;DHT22;12678;51.336;12.406;2023-05-16T02:04:13;13.30;99.90
24518;DHT22;12678;51.336;12.406;2023-05-16T02:06:41;13.30;99.90
24518;DHT22;12678;51.336;12.406;2023-05-16T02:09:07;13.20;99.90
24518;DHT22;12678;51.336;12.406;2023-05-16T02:11:33;13.10;99.90
24518;DHT22;12678;51.336;12.406;2023-05-16T02:13:59;13.10;99.90
24518;DHT22;12678;51.336;12.406;2023-05-16T02:16:25;13.10;99.90
24518;DHT22;12678;51.336;12.406;2023-05-16T02:18:50;13.10;99.90
24518;DHT22;12678;51.336;12.406;2023-05-16T02:21:16;13.00;99.90
24518;DHT22;12678;51.336;12.406;2023-05-16T02:23:41;13.00;99.90
24518;DHT22;12678;51.336;12.406;2023-05-16T02:26:07;13.00;99.90
24518;DHT22;12678;51.336;12.406;2023-05-16T02:28:33;13.00;99.90
24518;DHT22;12678;51.336;12.406;2023-05-16T02:30:59;12.90;99.90
24518;DHT22;12678;51.336;12.406;2023-05-16T02:33:26;12.80;99.90
24518;DHT22;12678;51.336;12.406;2023-05-16T02:35:53;12.70;99.90
24518;DHT22;12678;51.336;12.406;2023-05-16T02:38:18;12.70;99.90
24518;DHT22;12678;51.336;12.406;2023-05-16T02:40:46;12.60;99.90
24518;DHT22;12678;51.336;12.406;2023-05-16T02:43:12;12.40;99.90
24518;DHT22;12678;51.336;12.406;2023-05-16T02:45:38;12.40;99.90
24518;DHT22;12678;51.336;12.406;2023-05-16T02:48:04;12.30;99.90
24518;DHT22;12678;51.336;12.406;2023-05-16T02:50:29;12.30;99.90
24518;DHT22;12678;51.336;12.406;2023-05-16T02:52:55;12.30;99.90
24518;DHT22;12678;51.336;12.406;2023-05-16T02:55:24;12.20;99.90
24518;DHT22;12678;51.336;12.406;2023-05-16T02:57:49;12.10;99.90
24518;DHT22;12678;51.336;12.406;2023-05-16T03:00:16;12.00;99.90
24518;DHT22;12678;51.336;12.406;2023-05-16T03:02:43;12.10;99.90
24518;DHT22;12678;51.336;12.406;2023-05-16T03:05:09;12.00;99.90
24518;DHT22;12678;51.336;12.406;2023-05-16T03:07:36;12.00;99.90
24518;DHT22;12678;51.336;12.406;2023-05-16T03:10:02;12.00;99.90
24518;DHT22;12678;51.336;12.406;2023-05-16T03:12:27;11.90;99.90
24518;DHT22;12678;51.336;12.406;2023-05-16T03:14:53;11.90;99.90
24518;DHT22;12678;51.336;12.406;2023-05-16T03:17:18;11.90;99.90
24518;DHT22;12678;51.336;12.406;2023-05-16T03:19:44;11.80;99.90
24518;DHT22;12678;51.336;12.406;2023-05-16T03:22:10;11.80;99.90
24518;DHT22;12678;51.336;12.406;2023-05-16T03:24:36;11.90;99.90
24518;DHT22;12678;51.336;12.406;2023-05-16T03:27:02;11.90;99.90
24518;DHT22;12678;51.336;12.406;2023-05-16T03:29:29;11.90;99.90
24518;DHT22;12678;51.336;12.406;2023-05-16T03:31:55;11.90;99.90
24518;DHT22;12678;51.336;12.406;2023-05-16T03:34:21;11.80;99.90
24518;DHT22;12678;51.336;12.406;2023-05-16T03:36:47;11.90;99.90
24518;DHT22;12678;51.336;12.406;2023-05-16T03:39:13;11.80;99.90
24518;DHT22;12678;51.336;12.406;2023-05-16T03:41:39;11.80;99.90
24518;DHT22;12678;51.336;12.406;2023-05-16T03:44:04;11.80;99.90
24518;DHT22;12678;51.336;12.406;2023-05-16T03:46:30;11.80;99.90
24518;DHT22;12678;51.336;12.406;2023-05-16T03:48:56;11.70;99.90
24518;DHT22;12678;51.336;12.406;2023-05-16T03:51:21;11.80;99.90
24518;DHT22;12678;51.336;12.406;2023-05-16T03:53:47;11.80;99.90
24518;DHT22;12678;51.336;12.406;2023-05-16T03:56:13;11.80;99.90
24518;DHT22;12678;51.336;12.406;2023-05-16T03:58:39;11.90;99.90
24518;DHT22;12678;51.336;12.406;2023-05-16T04:01:04;11.90;99.90
24518;DHT22;12678;51.336;12.406;2023-05-16T04:03:30;12.00;99.90
24518;DHT22;12678;51.336;12.406;2023-05-16T04:05:58;12.00;99.90
24518;DHT22;12678;51.336;12.406;2023-05-16T04:08:23;12.00;99.90
24518;DHT22;12678;51.336;12.406;2023-05-16T04:10:50;12.00;99.90
24518;DHT22;12678;51.336;12.406;2023-05-16T04:13:16;12.00;99.90
24518;DHT22;12678;51.336;12.406;2023-05-16T04:15:41;12.00;99.90
24518;DHT22;12678;51.336;12.406;2023-05-16T04:18:08;12.20;99.90
24518;DHT22;12678;51.336;12.406;2023-05-16T04:20:34;12.20;99.90
24518;DHT22;12678;51.336;12.406;2023-05-16T04:23:01;12.20;99.90
24518;DHT22;12678;51.336;12.406;2023-05-16T04:25:26;12.10;99.90
24518;DHT22;12678;51.336;12.406;2023-05-16T04:27:52;12.10;99.90
24518;DHT22;12678;51.336;12.406;2023-05-16T04:30:18;12.00;99.90
24518;DHT22;12678;51.336;12.406;2023-05-16T04:32:43;12.00;99.90
24518;DHT22;12678;51.336;12.406;2023-05-16T04:35:09;12.10;99.90
24518;DHT22;12678;51.336;12.406;2023-05-16T04:37:35;12.20;99.90
24518;DHT22;12678;51.336;12.406;2023-05-16T04:40:02;12.10;99.90
24518;DHT22;12678;51.336;12.406;2023-05-16T04:42:28;12.20;99.90
24518;DHT22;12678;51.336;12.406;2023-05-16T04:44:54;12.20;99.90
24518;DHT22;12678;51.336;12.406;2023-05-16T04:47:20;12.20;99.90
24518;DHT22;12678;51.336;12.406;2023-05-16T04:49:46;12.10;99.90
24518;DHT22;12678;51.336;12.406;2023-05-16T04:52:11;12.10;99.90
24518;DHT22;12678;51.336;12.406;2023-05-16T04:54:37;12.20;99.90
24518;DHT22;12678;51.336;12.406;2023-05-16T04:57:04;12.20;99.90
24518;DHT22;12678;51.336;12.406;2023-05-16T04:59:30;12.20;99.90
24518;DHT22;12678;51.336;12.406;2023-05-16T05:01:55;12.20;99.90
24518;DHT22;12678;51.336;12.406;2023-05-16T05:04:21;12.20;99.90
24518;DHT22;12678;51.336;12.406;2023-05-16T05:06:47;12.20;99.90
24518;DHT22;12678;51.336;12.406;2023-05-16T05:09:12;12.30;99.90
24518;DHT22;12678;51.336;12.406;2023-05-16T05:11:38;12.30;99.90
24518;DHT22;12678;51.336;12.406;2023-05-16T05:14:04;12.30;99.90
24518;DHT22;12678;51.336;12.406;2023-05-16T05:16:30;12.20;99.90
24518;DHT22;12678;51.336;12.406;2023-05-16T05:18:56;12.20;99.90
24518;DHT22;12678;51.336;12.406;2023-05-16T05:21:22;12.20;99.90
24518;DHT22;12678;51.336;12.406;2023-05-16T05:23:49;12.30;99.90
24518;DHT22;12678;51.336;12.406;2023-05-16T05:26:16;12.20;99.90
24518;DHT22;12678;51.336;12.406;2023-05-16T05:28:42;12.30;99.90
24518;DHT22;12678;51.336;12.406;2023-05-16T05:31:07;12.30;99.90
24518;DHT22;12678;51.336;12.406;2023-05-16T05:33:33;12.30;99.90
24518;DHT22;12678;51.336;12.406;2023-05-16T05:35:58;12.30;99.90
24518;DHT22;12678;51.336;12.406;2023-05-16T05:38:24;12.30;99.90
24518;DHT22;12678;51.336;12.406;2023-05-16T05:40:51;12.20;99.90
24518;DHT22;12678;51.336;12.406;2023-05-16T05:43:17;12.30;99.90
24518;DHT22;12678;51.336;12.406;2023-05-16T05:45:43;12.30;99.90
24518;DHT22;12678;51.336;12.406;2023-05-16T05:48:09;12.30;99.90
24518;DHT22;12678;51.336;12.406;2023-05-16T05:50:36;12.30;99.90
24518;DHT22;12678;51.336;12.406;2023-05-16T05:53:02;12.30;99.90
24518;DHT22;12678;51.336;12.406;2023-05-16T05:55:28;12.20;99.90
24518;DHT22;12678;51.336;12.406;2023-05-16T05:57:54;12.20;99.90
24518;DHT22;12678;51.336;12.406;2023-05-16T06:00:20;12.20;99.90
24518;DHT22;12678;51.336;12.406;2023-05-16T06:02:46;12.20;99.90
24518;DHT22;12678;51.336;12.406;2023-05-16T06:05:12;12.20;99.90
24518;DHT22;12678;51.336;12.406;2023-05-16T06:07:38;12.10;99.90
24518;DHT22;12678;51.336;12.406;2023-05-16T06:10:04;12.10;99.90
24518;DHT22;12678;51.336;12.406;2023-05-16T06:12:30;12.10;99.90
24518;DHT22;12678;51.336;12.406;2023-05-16T06:14:56;12.10;99.90
24518;DHT22;12678;51.336;12.406;2023-05-16T06:17:22;12.10;99.90
24518;DHT22;12678;51.336;12.406;2023-05-16T06:19:47;12.10;99.90
24518;DHT22;12678;51.336;12.406;2023-05-16T06:22:13;12.10;99.90
24518;DHT22;12678;51.336;12.406;2023-05-16T06:24:39;12.10;99.90
24518;DHT22;12678;51.336;12.406;2023-05-16T06:27:05;12.20;99.90
24518;DHT22;12678;51.336;12.406;2023-05-16T06:29:31;12.10;99.90
24518;DHT22;12678;51.336;12.406;2023-05-16T06:31:57;12.20;99.90
24518;DHT22;12678;51.336;12.406;2023-05-16T06:34:23;12.20;99.90
24518;DHT22;12678;51.336;12.406;2023-05-16T06:36:53;12.20;99.90
24518;DHT22;12678;51.336;12.406;2023-05-16T06:39:18;12.30;99.90
24518;DHT22;12678;51.336;12.406;2023-05-16T06:41:44;12.30;99.90
24518;DHT22;12678;51.336;12.406;2023-05-16T06:44:10;12.40;99.90
24518;DHT22;12678;51.336;12.406;2023-05-16T06:46:36;12.30;99.90
24518;DHT22;12678;51.336;12.406;2023-05-16T06:49:03;12.40;99.90
24518;DHT22;12678;51.336;12.406;2023-05-16T06:51:29;12.40;99.90
24518;DHT22;12678;51.336;12.406;2023-05-16T06:53:55;12.50;99.90
24518;DHT22;12678;51.336;12.406;2023-05-16T06:56:21;12.50;99.90
24518;DHT22;12678;51.336;12.406;2023-05-16T06:58:48;12.50;99.90
24518;DHT22;12678;51.336;12.406;2023-05-16T07:01:14;12.60;99.90
24518;DHT22;12678;51.336;12.406;2023-05-16T07:03:40;12.60;99.90
24518;DHT22;12678;51.336;12.406;2023-05-16T07:06:05;12.60;99.90
24518;DHT22;12678;51.336;12.406;2023-05-16T07:08:31;12.50;99.90
24518;DHT22;12678;51.336;12.406;2023-05-16T07:10:57;12.50;99.90
24518;DHT22;12678;51.336;12.406;2023-05-16T07:13:23;12.50;99.90
24518;DHT22;12678;51.336;12.406;2023-05-16T07:15:48;12.50;99.90
24518;DHT22;12678;51.336;12.406;2023-05-16T07:18:14;12.50;99.90
24518;DHT22;12678;51.336;12.406;2023-05-16T07:20:39;12.60;99.90
24518;DHT22;12678;51.336;12.406;2023-05-16T07:23:05;12.70;99.90
24518;DHT22;12678;51.336;12.406;2023-05-16T07:25:31;12.60;99.90
24518;DHT22;12678;51.336;12.406;2023-05-16T07:27:56;12.60;99.90
24518;DHT22;12678;51.336;12.406;2023-05-16T07:30:22;12.70;99.90
24518;DHT22;12678;51.336;12.406;2023-05-16T07:32:48;12.70;99.90
24518;DHT22;12678;51.336;12.406;2023-05-16T07:35:13;12.70;99.90
24518;DHT22;12678;51.336;12.406;2023-05-16T07:37:39;12.70;99.90
24518;DHT22;12678;51.336;12.406;2023-05-16T07:40:07;12.70;99.90
24518;DHT22;12678;51.336;12.406;2023-05-16T07:42:33;12.70;99.90
24518;DHT22;12678;51.336;12.406;2023-05-16T07:44:58;12.70;99.90
24518;DHT22;12678;51.336;12.406;2023-05-16T07:47:24;12.80;99.90
24518;DHT22;12678;51.336;12.406;2023-05-16T07:49:50;12.80;99.90
24518;DHT22;12678;51.336;12.406;2023-05-16T07:52:16;13.00;99.90
24518;DHT22;12678;51.336;12.406;2023-05-16T07:54:41;13.00;99.90
24518;DHT22;12678;51.336;12.406;2023-05-16T07:57:07;13.00;99.90
24518;DHT22;12678;51.336;12.406;2023-05-16T07:59:33;13.10;99.90
24518;DHT22;12678;51.336;12.406;2023-05-16T08:01:59;13.10;99.90
24518;DHT22;12678;51.336;12.406;2023-05-16T08:04:24;13.10;99.90
24518;DHT22;12678;51.336;12.406;2023-05-16T08:06:50;13.30;99.90
24518;DHT22;12678;51.336;12.406;2023-05-16T08:09:15;13.40;99.90
24518;DHT22;12678;51.336;12.406;2023-05-16T08:11:41;13.50;99.90
24518;DHT22;12678;51.336;12.406;2023-05-16T08:14:09;13.80;99.90
24518;DHT22;12678;51.336;12.406;2023-05-16T08:16:35;13.90;99.90
24518;DHT22;12678;51.336;12.406;2023-05-16T08:19:01;14.10;99.90
24518;DHT22;12678;51.336;12.406;2023-05-16T08:21:27;14.20;99.90
24518;DHT22;12678;51.336;12.406;2023-05-16T08:23:52;14.40;99.90
24518;DHT22;12678;51.336;12.406;2023-05-16T08:26:18;14.50;99.90
24518;DHT22;12678;51.336;12.406;2023-05-16T08:28:44;14.60;99.90
24518;DHT22;12678;51.336;12.406;2023-05-16T08:31:09;14.60;99.90
24518;DHT22;12678;51.336;12.406;2023-05-16T08:33:35;14.40;99.90
24518;DHT22;12678;51.336;12.406;2023-05-16T08:36:00;14.30;99.90
24518;DHT22;12678;51.336;12.406;2023-05-16T08:38:26;14.20;99.90
24518;DHT22;12678;51.336;12.406;2023-05-16T08:40:52;14.30;99.90
24518;DHT22;12678;51.336;12.406;2023-05-16T08:43:17;14.40;99.90
24518;DHT22;12678;51.336;12.406;2023-05-16T08:45:43;14.40;99.90
24518;DHT22;12678;51.336;12.406;2023-05-16T08:48:09;14.80;99.90
24518;DHT22;12678;51.336;12.406;2023-05-16T08:50:36;15.30;99.90
24518;DHT22;12678;51.336;12.406;2023-05-16T08:53:06;15.60;99.90
24518;DHT22;12678;51.336;12.406;2023-05-16T08:55:33;15.60;99.90
24518;DHT22;12678;51.336;12.406;2023-05-16T08:57:59;15.40;99.90
24518;DHT22;12678;51.336;12.406;2023-05-16T09:00:26;15.10;99.90
24518;DHT22;12678;51.336;12.406;2023-05-16T09:02:52;15.00;99.90
24518;DHT22;12678;51.336;12.406;2023-05-16T09:05:18;14.80;99.90
24518;DHT22;12678;51.336;12.406;2023-05-16T09:07:44;14.70;99.90
24518;DHT22;12678;51.336;12.406;2023-05-16T09:10:10;14.70;99.90
24518;DHT22;12678;51.336;12.406;2023-05-16T09:12:37;14.70;99.90
24518;DHT22;12678;51.336;12.406;2023-05-16T09:15:04;14.70;99.90
24518;DHT22;12678;51.336;12.406;2023-05-16T09:17:35;14.80;99.90
24518;DHT22;12678;51.336;12.406;2023-05-16T09:20:14;14.80;99.90
24518;DHT22;12678;51.336;12.406;2023-05-16T09:22:49;14.80;99.90
24518;DHT22;12678;51.336;12.406;2023-05-16T09:25:17;14.80;99.90
24518;DHT22;12678;51.336;12.406;2023-05-16T09:27:44;14.70;99.90
24518;DHT22;12678;51.336;12.406;2023-05-16T09:30:16;14.70;99.90
24518;DHT22;12678;51.336;12.406;2023-05-16T09:32:45;14.60;99.90
24518;DHT22;12678;51.336;12.406;2023-05-16T09:35:15;14.50;99.90
24518;DHT22;12678;51.336;12.406;2023-05-16T09:37:50;14.40;99.90
24518;DHT22;12678;51.336;12.406;2023-05-16T09:40:22;14.30;99.90
24518;DHT22;12678;51.336;12.406;2023-05-16T09:43:03;14.40;99.90
24518;DHT22;12678;51.336;12.406;2023-05-16T09:45:30;14.30;99.90
24518;DHT22;12678;51.336;12.406;2023-05-16T09:48:07;14.30;99.90
24518;DHT22;12678;51.336;12.406;2023-05-16T09:50:33;14.20;99.90
24518;DHT22;12678;51.336;12.406;2023-05-16T09:53:00;14.20;99.90
24518;DHT22;12678;51.336;12.406;2023-05-16T09:55:26;14.10;99.90
24518;DHT22;12678;51.336;12.406;2023-05-16T09:57:51;14.10;99.90
24518;DHT22;12678;51.336;12.406;2023-05-16T10:00:17;14.10;99.90
24518;DHT22;12678;51.336;12.406;2023-05-16T10:02:43;14.00;99.90
24518;DHT22;12678;51.336;12.406;2023-05-16T10:05:09;14.00;99.90
24518;DHT22;12678;51.336;12.406;2023-05-16T10:07:34;14.00;99.90
24518;DHT22;12678;51.336;12.406;2023-05-16T10:10:05;14.00;99.90
24518;DHT22;12678;51.336;12.406;2023-05-16T10:12:32;13.90;99.90
24518;DHT22;12678;51.336;12.406;2023-05-16T10:15:00;13.80;99.90
24518;DHT22;12678;51.336;12.406;2023-05-16T10:17:27;13.90;99.90
24518;DHT22;12678;51.336;12.406;2023-05-16T10:19:56;13.90;99.90
24518;DHT22;12678;51.336;12.406;2023-05-16T10:22:22;13.90;99.90
24518;DHT22;12678;51.336;12.406;2023-05-16T10:25:07;13.90;99.90
24518;DHT22;12678;51.336;12.406;2023-05-16T10:27:35;13.90;99.90
24518;DHT22;12678;51.336;12.406;2023-05-16T10:30:01;14.00;99.90
24518;DHT22;12678;51.336;12.406;2023-05-16T10:32:27;14.00;99.90
24518;DHT22;12678;51.336;12.406;2023-05-16T10:34:54;14.00;99.90
24518;DHT22;12678;51.336;12.406;2023-05-16T10:37:23;14.10;99.90
24518;DHT22;12678;51.336;12.406;2023-05-16T10:39:49;14.20;99.90
24518;DHT22;12678;51.336;12.406;2023-05-16T10:42:15;14.10;99.90
24518;DHT22;12678;51.336;12.406;2023-05-16T10:44:43;14.10;99.90
24518;DHT22;12678;51.336;12.406;2023-05-16T10:47:08;14.20;99.90
24518;DHT22;12678;51.336;12.406;2023-05-16T10:49:34;14.10;99.90
24518;DHT22;12678;51.336;12.406;2023-05-16T10:52:11;14.10;99.90
24518;DHT22;12678;51.336;12.406;2023-05-16T10:54:38;14.00;99.90
24518;DHT22;12678;51.336;12.406;2023-05-16T10:57:10;14.00;99.90
24518;DHT22;12678;51.336;12.406;2023-05-16T10:59:47;13.90;99.90
24518;DHT22;12678;51.336;12.406;2023-05-16T11:02:23;13.90;99.90
24518;DHT22;12678;51.336;12.406;2023-05-16T11:04:51;13.90;99.90
24518;DHT22;12678;51.336;12.406;2023-05-16T11:07:18;13.80;99.90
24518;DHT22;12678;51.336;12.406;2023-05-16T11:09:44;13.80;99.90
24518;DHT22;12678;51.336;12.406;2023-05-16T11:12:12;13.80;99.90
24518;DHT22;12678;51.336;12.406;2023-05-16T11:14:39;13.70;99.90
24518;DHT22;12678;51.336;12.406;2023-05-16T11:25:11;13.80;99.90
24518;DHT22;12678;51.336;12.406;2023-05-16T11:27:46;13.90;99.90
24518;DHT22;12678;51.336;12.406;2023-05-16T11:32:41;14.10;99.90
24518;DHT22;12678;51.336;12.406;2023-05-16T11:35:10;14.30;99.90
24518;DHT22;12678;51.336;12.406;2023-05-16T11:37:36;14.30;99.90
24518;DHT22;12678;51.336;12.406;2023-05-16T11:40:04;14.40;99.90
24518;DHT22;12678;51.336;12.406;2023-05-16T11:42:44;14.50;99.90
24518;DHT22;12678;51.336;12.406;2023-05-16T11:45:18;14.70;99.90
24518;DHT22;12678;51.336;12.406;2023-05-16T11:47:46;14.80;99.90
24518;DHT22;12678;51.336;12.406;2023-05-16T11:50:22;14.80;99.90
24518;DHT22;12678;51.336;12.406;2023-05-16T11:52:49;14.70;99.90
24518;DHT22;12678;51.336;12.406;2023-05-16T11:55:20;14.80;99.90
24518;DHT22;12678;51.336;12.406;2023-05-16T11:57:50;14.60;99.90
24518;DHT22;12678;51.336;12.406;2023-05-16T12:00:20;14.60;99.90
24518;DHT22;12678;51.336;12.406;2023-05-16T12:02:49;14.50;99.90
24518;DHT22;12678;51.336;12.406;2023-05-16T12:05:16;14.60;99.90
24518;DHT22;12678;51.336;12.406;2023-05-16T12:07:42;14.70;99.90
24518;DHT22;12678;51.336;12.406;2023-05-16T12:10:10;14.80;99.90
24518;DHT22;12678;51.336;12.406;2023-05-16T12:12:36;14.90;99.90
24518;DHT22;12678;51.336;12.406;2023-05-16T12:15:04;15.10;99.90
24518;DHT22;12678;51.336;12.406;2023-05-16T12:17:32;15.20;99.90
24518;DHT22;12678;51.336;12.406;2023-05-16T12:19:58;15.10;99.90
24518;DHT22;12678;51.336;12.406;2023-05-16T12:22:24;15.10;99.90
24518;DHT22;12678;51.336;12.406;2023-05-16T12:24:50;15.10;99.90
24518;DHT22;12678;51.336;12.406;2023-05-16T12:27:24;15.00;99.90
24518;DHT22;12678;51.336;12.406;2023-05-16T12:29:50;15.00;99.90
24518;DHT22;12678;51.336;12.406;2023-05-16T12:32:20;15.00;99.90
24518;DHT22;12678;51.336;12.406;2023-05-16T12:34:49;15.10;99.90
24518;DHT22;12678;51.336;12.406;2023-05-16T12:37:16;15.20;99.90
24518;DHT22;12678;51.336;12.406;2023-05-16T12:39:42;15.40;99.90
24518;DHT22;12678;51.336;12.406;2023-05-16T12:42:08;15.60;99.90
24518;DHT22;12678;51.336;12.406;2023-05-16T12:44:35;15.80;99.90
24518;DHT22;12678;51.336;12.406;2023-05-16T12:47:01;15.90;99.90
24518;DHT22;12678;51.336;12.406;2023-05-16T12:49:27;16.00;99.90
24518;DHT22;12678;51.336;12.406;2023-05-16T12:51:55;15.90;99.90
24518;DHT22;12678;51.336;12.406;2023-05-16T12:54:24;15.90;99.90
24518;DHT22;12678;51.336;12.406;2023-05-16T12:56:49;16.00;99.90
24518;DHT22;12678;51.336;12.406;2023-05-16T12:59:15;15.90;99.90
24518;DHT22;12678;51.336;12.406;2023-05-16T13:01:41;15.80;99.90
24518;DHT22;12678;51.336;12.406;2023-05-16T13:04:08;15.70;99.90
24518;DHT22;12678;51.336;12.406;2023-05-16T13:06:38;15.70;99.90
24518;DHT22;12678;51.336;12.406;2023-05-16T13:09:04;15.70;99.90
24518;DHT22;12678;51.336;12.406;2023-05-16T13:11:29;15.70;99.90
24518;DHT22;12678;51.336;12.406;2023-05-16T13:13:55;15.80;99.90
24518;DHT22;12678;51.336;12.406;2023-05-16T13:16:20;15.80;99.90
24518;DHT22;12678;51.336;12.406;2023-05-16T13:18:46;15.70;99.90
24518;DHT22;12678;51.336;12.406;2023-05-16T13:21:12;15.60;99.90
24518;DHT22;12678;51.336;12.406;2023-05-16T13:23:37;15.70;99.90
24518;DHT22;12678;51.336;12.406;2023-05-16T13:26:03;15.70;99.80
24518;DHT22;12678;51.336;12.406;2023-05-16T13:28:29;15.90;99.30
24518;DHT22;12678;51.336;12.406;2023-05-16T13:30:56;15.90;98.80
24518;DHT22;12678;51.336;12.406;2023-05-16T13:33:22;16.00;98.10
24518;DHT22;12678;51.336;12.406;2023-05-16T13:35:49;16.00;96.80
24518;DHT22;12678;51.336;12.406;2023-05-16T13:38:15;16.20;96.30
24518;DHT22;12678;51.336;12.406;2023-05-16T13:40:41;16.20;95.60
24518;DHT22;12678;51.336;12.406;2023-05-16T13:43:08;16.40;94.20
24518;DHT22;12678;51.336;12.406;2023-05-16T13:45:33;16.50;93.90
24518;DHT22;12678;51.336;12.406;2023-05-16T13:47:59;16.50;93.80
24518;DHT22;12678;51.336;12.406;2023-05-16T13:50:25;16.60;93.80
24518;DHT22;12678;51.336;12.406;2023-05-16T13:52:51;16.60;93.80
24518;DHT22;12678;51.336;12.406;2023-05-16T13:55:16;16.50;91.40
24518;DHT22;12678;51.336;12.406;2023-05-16T13:57:43;16.30;92.50
24518;DHT22;12678;51.336;12.406;2023-05-16T14:00:08;16.20;93.40
24518;DHT22;12678;51.336;12.406;2023-05-16T14:02:41;16.10;93.90
24518;DHT22;12678;51.336;12.406;2023-05-16T14:05:07;16.00;94.00
24518;DHT22;12678;51.336;12.406;2023-05-16T14:07:33;16.00;94.10
24518;DHT22;12678;51.336;12.406;2023-05-16T14:09:59;16.00;93.90
24518;DHT22;12678;51.336;12.406;2023-05-16T14:12:25;15.80;93.40
24518;DHT22;12678;51.336;12.406;2023-05-16T14:14:50;15.90;93.60
24518;DHT22;12678;51.336;12.406;2023-05-16T14:17:16;15.90;92.70
24518;DHT22;12678;51.336;12.406;2023-05-16T14:19:42;16.00;91.90
24518;DHT22;12678;51.336;12.406;2023-05-16T14:22:07;16.10;90.10
24518;DHT22;12678;51.336;12.406;2023-05-16T14:24:33;16.20;90.00
24518;DHT22;12678;51.336;12.406;2023-05-16T14:26:58;16.20;90.30
24518;DHT22;12678;51.336;12.406;2023-05-16T14:29:25;16.20;89.80
24518;DHT22;12678;51.336;12.406;2023-05-16T14:31:50;16.10;90.30
24518;DHT22;12678;51.336;12.406;2023-05-16T14:34:16;16.10;90.70
24518;DHT22;12678;51.336;12.406;2023-05-16T14:36:41;16.00;90.40
24518;DHT22;12678;51.336;12.406;2023-05-16T14:39:08;16.00;88.60
24518;DHT22;12678;51.336;12.406;2023-05-16T14:41:34;15.90;90.20
24518;DHT22;12678;51.336;12.406;2023-05-16T14:43:59;16.00;91.00
24518;DHT22;12678;51.336;12.406;2023-05-16T14:46:25;16.10;91.20
24518;DHT22;12678;51.336;12.406;2023-05-16T14:48:51;16.30;90.60
24518;DHT22;12678;51.336;12.406;2023-05-16T14:51:16;16.40;89.40
24518;DHT22;12678;51.336;12.406;2023-05-16T14:53:42;16.60;87.40
24518;DHT22;12678;51.336;12.406;2023-05-16T14:56:08;16.60;86.70
24518;DHT22;12678;51.336;12.406;2023-05-16T14:58:33;16.60;85.40
24518;DHT22;12678;51.336;12.406;2023-05-16T15:01:02;16.60;85.50
24518;DHT22;12678;51.336;12.406;2023-05-16T15:03:27;16.70;85.00
24518;DHT22;12678;51.336;12.406;2023-05-16T15:05:53;16.60;85.70
24518;DHT22;12678;51.336;12.406;2023-05-16T15:08:19;16.70;85.10
24518;DHT22;12678;51.336;12.406;2023-05-16T15:10:46;16.70;84.60
24518;DHT22;12678;51.336;12.406;2023-05-16T15:13:12;16.70;83.40
24518;DHT22;12678;51.336;12.406;2023-05-16T15:15:37;16.60;82.60
24518;DHT22;12678;51.336;12.406;2023-05-16T15:18:03;16.50;83.00
24518;DHT22;12678;51.336;12.406;2023-05-16T15:20:30;16.40;83.60
24518;DHT22;12678;51.336;12.406;2023-05-16T15:22:55;16.20;82.90
24518;DHT22;12678;51.336;12.406;2023-05-16T15:25:21;16.10;81.30
24518;DHT22;12678;51.336;12.406;2023-05-16T15:27:46;16.00;82.90
24518;DHT22;12678;51.336;12.406;2023-05-16T15:30:12;15.90;81.70